sensor_id;sensor_type;location;lat;lon;timestamp;pressure;altitude;pressure_sealevel;temperature;humidity
51261;BME280;61705;46.228;24.812;2022-12-18T00:01:04;98387.44;;;1.98;89.42
51261;BME280;61705;46.228;24.812;2022-12-18T00:03:33;98382.25;;;1.86;89.49
51261;BME280;61705;46.228;24.812;2022-12-18T00:06:00;98379.63;;;1.80;89.59
51261;BME280;61705;46.228;24.812;2022-12-18T00:08:27;98386.56;;;1.79;89.75
51261;BME280;61705;46.228;24.812;2022-12-18T00:10:54;98398.75;;;1.79;90.04
51261;BME280;61705;46.228;24.812;2022-12-18T00:13:27;98394.38;;;1.59;90.32
51261;BME280;61705;46.228;24.812;2022-12-18T00:15:53;98403.06;;;1.68;90.24
51261;BME280;61705;46.228;24.812;2022-12-18T00:18:22;98410.88;;;1.58;90.50
51261;BME280;61705;46.228;24.812;2022-12-18T00:20:48;98416.97;;;1.65;90.37
51261;BME280;61705;46.228;24.812;2022-12-18T00:23:15;98419.53;;;1.63;90.31
51261;BME280;61705;46.228;24.812;2022-12-18T00:25:42;98426.50;;;1.64;90.53
51261;BME280;61705;46.228;24.812;2022-12-18T00:28:08;98423.91;;;1.80;90.09
51261;BME280;61705;46.228;24.812;2022-12-18T00:30:35;98428.25;;;1.70;89.82
51261;BME280;61705;46.228;24.812;2022-12-18T00:33:01;98444.72;;;1.60;89.91
51261;BME280;61705;46.228;24.812;2022-12-18T00:35:28;98449.91;;;1.57;89.74
51261;BME280;61705;46.228;24.812;2022-12-18T00:37:55;98453.41;;;1.56;89.88
51261;BME280;61705;46.228;24.812;2022-12-18T00:40:21;98455.13;;;1.60;89.73
51261;BME280;61705;46.228;24.812;2022-12-18T00:42:48;98453.38;;;1.50;89.74
51261;BME280;61705;46.228;24.812;2022-12-18T00:45:28;98458.59;;;1.60;89.97
51261;BME280;61705;46.228;24.812;2022-12-18T00:47:56;98471.66;;;1.66;90.07
51261;BME280;61705;46.228;24.812;2022-12-18T00:50:24;98471.69;;;1.86;89.51
51261;BME280;61705;46.228;24.812;2022-12-18T00:52:51;98470.84;;;1.78;89.04
51261;BME280;61705;46.228;24.812;2022-12-18T00:55:18;98466.47;;;1.79;88.93
51261;BME280;61705;46.228;24.812;2022-12-18T00:57:45;98480.34;;;1.62;89.24
51261;BME280;61705;46.228;24.812;2022-12-18T01:00:14;98478.56;;;1.60;89.35
51261;BME280;61705;46.228;24.812;2022-12-18T01:02:41;98483.78;;;1.52;89.77
51261;BME280;61705;46.228;24.812;2022-12-18T01:05:10;98494.19;;;1.57;90.04
51261;BME280;61705;46.228;24.812;2022-12-18T01:07:37;98495.97;;;1.61;90.11
51261;BME280;61705;46.228;24.812;2022-12-18T01:10:05;98493.34;;;1.67;89.88
51261;BME280;61705;46.228;24.812;2022-12-18T01:12:32;98498.53;;;1.47;90.05
51261;BME280;61705;46.228;24.812;2022-12-18T01:14:59;98506.31;;;1.49;90.42
51261;BME280;61705;46.228;24.812;2022-12-18T01:17:25;98507.19;;;1.49;90.28
51261;BME280;61705;46.228;24.812;2022-12-18T01:19:53;98510.69;;;1.54;90.05
51261;BME280;61705;46.228;24.812;2022-12-18T01:22:19;98501.94;;;1.34;89.83
51261;BME280;61705;46.228;24.812;2022-12-18T01:24:46;98512.31;;;1.32;90.10
51261;BME280;61705;46.228;24.812;2022-12-18T01:27:12;98506.28;;;1.39;90.05
51261;BME280;61705;46.228;24.812;2022-12-18T01:29:39;98520.19;;;1.41;89.91
51261;BME280;61705;46.228;24.812;2022-12-18T01:32:06;98519.34;;;1.50;89.76
51261;BME280;61705;46.228;24.812;2022-12-18T01:34:34;98519.38;;;1.55;89.33
51261;BME280;61705;46.228;24.812;2022-12-18T01:37:03;98522.88;;;1.61;89.21
51261;BME280;61705;46.228;24.812;2022-12-18T01:39:31;98523.78;;;1.71;88.36
51261;BME280;61705;46.228;24.812;2022-12-18T01:41:59;98521.09;;;1.50;88.25
51261;BME280;61705;46.228;24.812;2022-12-18T01:47:22;98534.09;;;1.50;88.09
51261;BME280;61705;46.228;24.812;2022-12-18T01:49:51;98534.00;;;1.27;88.21
51261;BME280;61705;46.228;24.812;2022-12-18T01:52:18;98537.50;;;1.36;88.06
51261;BME280;61705;46.228;24.812;2022-12-18T01:54:47;98533.09;;;1.17;88.24
51261;BME280;61705;46.228;24.812;2022-12-18T01:57:15;98546.16;;;1.29;88.16
51261;BME280;61705;46.228;24.812;2022-12-18T01:59:43;98552.16;;;1.13;88.34
51261;BME280;61705;46.228;24.812;2022-12-18T02:02:11;98552.97;;;1.04;88.67
51261;BME280;61705;46.228;24.812;2022-12-18T02:04:41;98551.25;;;1.06;89.15
51261;BME280;61705;46.228;24.812;2022-12-18T02:12:50;98556.50;;;1.14;88.87
51261;BME280;61705;46.228;24.812;2022-12-18T02:15:27;98560.03;;;1.28;88.22
51261;BME280;61705;46.228;24.812;2022-12-18T02:18:09;98565.13;;;1.08;88.19
51261;BME280;61705;46.228;24.812;2022-12-18T02:20:49;98562.50;;;1.05;88.23
51261;BME280;61705;46.228;24.812;2022-12-18T02:28:41;98575.47;;;0.96;89.49
51261;BME280;61705;46.228;24.812;2022-12-18T02:31:11;98572.06;;;1.08;88.90
51261;BME280;61705;46.228;24.812;2022-12-18T02:33:43;98575.63;;;1.22;88.08
51261;BME280;61705;46.228;24.812;2022-12-18T02:36:12;98585.88;;;0.99;88.48
51261;BME280;61705;46.228;24.812;2022-12-18T02:38:40;98584.19;;;1.03;88.66
51261;BME280;61705;46.228;24.812;2022-12-18T02:41:08;98594.47;;;0.86;88.92
51261;BME280;61705;46.228;24.812;2022-12-18T02:43:34;98598.78;;;0.82;89.19
51261;BME280;61705;46.228;24.812;2022-12-18T02:46:28;98608.41;;;0.92;88.79
51261;BME280;61705;46.228;24.812;2022-12-18T02:51:53;98604.78;;;0.77;89.11
51261;BME280;61705;46.228;24.812;2022-12-18T03:02:55;98612.59;;;0.78;88.59
51261;BME280;61705;46.228;24.812;2022-12-18T03:05:40;98613.50;;;0.79;88.65
51261;BME280;61705;46.228;24.812;2022-12-18T03:08:19;98620.50;;;0.86;88.70
51261;BME280;61705;46.228;24.812;2022-12-18T03:11:08;98613.47;;;0.77;88.76
51261;BME280;61705;46.228;24.812;2022-12-18T03:13:40;98622.16;;;0.79;88.79
51261;BME280;61705;46.228;24.812;2022-12-18T03:16:12;98623.91;;;0.80;88.39
51261;BME280;61705;46.228;24.812;2022-12-18T03:19:01;98626.66;;;1.00;88.47
51261;BME280;61705;46.228;24.812;2022-12-18T03:21:35;98626.72;;;1.06;87.87
51261;BME280;61705;46.228;24.812;2022-12-18T03:24:06;98637.97;;;1.05;87.94
51261;BME280;61705;46.228;24.812;2022-12-18T03:26:35;98644.06;;;1.09;87.90
51261;BME280;61705;46.228;24.812;2022-12-18T03:29:07;98647.63;;;1.18;86.61
51261;BME280;61705;46.228;24.812;2022-12-18T03:31:37;98657.81;;;0.91;87.24
51261;BME280;61705;46.228;24.812;2022-12-18T03:34:13;98661.38;;;1.02;87.24
51261;BME280;61705;46.228;24.812;2022-12-18T03:36:41;98663.13;;;1.03;87.34
51261;BME280;61705;46.228;24.812;2022-12-18T03:39:08;98660.56;;;1.06;87.42
51261;BME280;61705;46.228;24.812;2022-12-18T03:41:44;98668.38;;;1.06;87.76
51261;BME280;61705;46.228;24.812;2022-12-18T03:49:33;98676.94;;;0.94;88.43
51261;BME280;61705;46.228;24.812;2022-12-18T03:52:20;98676.19;;;1.06;88.08
51261;BME280;61705;46.228;24.812;2022-12-18T03:54:51;98674.44;;;1.07;88.08
51261;BME280;61705;46.228;24.812;2022-12-18T03:57:21;98681.38;;;1.06;88.09
51261;BME280;61705;46.228;24.812;2022-12-18T03:59:53;98684.81;;;1.04;88.04
51261;BME280;61705;46.228;24.812;2022-12-18T04:02:23;98698.69;;;1.04;88.14
51261;BME280;61705;46.228;24.812;2022-12-18T04:04:52;98695.22;;;1.04;88.28
51261;BME280;61705;46.228;24.812;2022-12-18T04:07:20;98702.09;;;0.97;88.48
51261;BME280;61705;46.228;24.812;2022-12-18T04:09:48;98702.09;;;0.99;88.70
51261;BME280;61705;46.228;24.812;2022-12-18T04:12:17;98707.28;;;0.92;88.45
51261;BME280;61705;46.228;24.812;2022-12-18T04:14:44;98702.03;;;0.89;88.88
51261;BME280;61705;46.228;24.812;2022-12-18T04:17:11;98708.06;;;0.84;88.52
51261;BME280;61705;46.228;24.812;2022-12-18T04:19:38;98715.09;;;0.92;88.71
51261;BME280;61705;46.228;24.812;2022-12-18T04:22:06;98716.88;;;1.00;88.46
51261;BME280;61705;46.228;24.812;2022-12-18T04:24:32;98719.53;;;1.04;88.23
51261;BME280;61705;46.228;24.812;2022-12-18T04:26:59;98716.13;;;1.10;86.94
51261;BME280;61705;46.228;24.812;2022-12-18T04:29:26;98723.81;;;1.02;85.61
51261;BME280;61705;46.228;24.812;2022-12-18T04:31:52;98721.16;;;0.93;85.66
51261;BME280;61705;46.228;24.812;2022-12-18T04:34:19;98723.78;;;0.99;84.70
51261;BME280;61705;46.228;24.812;2022-12-18T04:36:46;98728.94;;;0.90;84.25
51261;BME280;61705;46.228;24.812;2022-12-18T04:39:13;98727.03;;;0.74;84.68
51261;BME280;61705;46.228;24.812;2022-12-18T04:41:40;98733.22;;;0.86;84.71
51261;BME280;61705;46.228;24.812;2022-12-18T04:44:07;98738.47;;;0.89;84.71
51261;BME280;61705;46.228;24.812;2022-12-18T04:46:34;98737.56;;;0.86;84.39
51261;BME280;61705;46.228;24.812;2022-12-18T04:49:01;98741.91;;;0.88;84.72
51261;BME280;61705;46.228;24.812;2022-12-18T04:51:27;98752.25;;;0.79;84.91
51261;BME280;61705;46.228;24.812;2022-12-18T04:53:54;98751.34;;;0.76;84.93
51261;BME280;61705;46.228;24.812;2022-12-18T04:56:21;98751.38;;;0.79;85.30
51261;BME280;61705;46.228;24.812;2022-12-18T04:58:48;98757.47;;;0.85;85.25
51261;BME280;61705;46.228;24.812;2022-12-18T05:01:16;98762.69;;;0.85;84.72
51261;BME280;61705;46.228;24.812;2022-12-18T05:03:44;98769.59;;;0.80;84.90
51261;BME280;61705;46.228;24.812;2022-12-18T05:06:11;98765.22;;;0.76;84.70
51261;BME280;61705;46.228;24.812;2022-12-18T05:08:37;98763.41;;;0.69;84.96
51261;BME280;61705;46.228;24.812;2022-12-18T05:11:10;98767.88;;;0.82;85.02
51261;BME280;61705;46.228;24.812;2022-12-18T05:13:37;98767.09;;;0.91;84.51
51261;BME280;61705;46.228;24.812;2022-12-18T05:16:05;98778.31;;;0.85;84.15
51261;BME280;61705;46.228;24.812;2022-12-18T05:18:32;98782.47;;;0.71;84.36
51261;BME280;61705;46.228;24.812;2022-12-18T05:20:59;98787.75;;;0.76;84.61
51261;BME280;61705;46.228;24.812;2022-12-18T05:23:27;98795.31;;;0.57;84.68
51261;BME280;61705;46.228;24.812;2022-12-18T05:25:57;98799.69;;;0.60;85.31
51261;BME280;61705;46.228;24.812;2022-12-18T05:28:25;98805.03;;;0.69;85.30
51261;BME280;61705;46.228;24.812;2022-12-18T05:30:54;98808.56;;;0.77;85.17
51261;BME280;61705;46.228;24.812;2022-12-18T05:33:23;98805.03;;;0.70;85.06
51261;BME280;61705;46.228;24.812;2022-12-18T05:35:55;98807.78;;;0.83;84.85
51261;BME280;61705;46.228;24.812;2022-12-18T05:38:23;98820.84;;;0.89;84.66
51261;BME280;61705;46.228;24.812;2022-12-18T05:40:51;98824.34;;;0.89;84.06
51261;BME280;61705;46.228;24.812;2022-12-18T05:43:18;98832.91;;;0.79;84.36
51261;BME280;61705;46.228;24.812;2022-12-18T05:45:47;98830.28;;;0.79;84.23
51261;BME280;61705;46.228;24.812;2022-12-18T05:48:15;98837.22;;;0.80;84.22
51261;BME280;61705;46.228;24.812;2022-12-18T05:50:43;98848.53;;;0.84;84.53
51261;BME280;61705;46.228;24.812;2022-12-18T05:53:12;98848.53;;;0.84;84.46
51261;BME280;61705;46.228;24.812;2022-12-18T05:55:40;98849.44;;;0.86;84.50
51261;BME280;61705;46.228;24.812;2022-12-18T05:58:09;98851.16;;;0.82;84.18
51261;BME280;61705;46.228;24.812;2022-12-18T06:00:37;98861.38;;;0.70;83.90
51261;BME280;61705;46.228;24.812;2022-12-18T06:03:09;98857.91;;;0.71;83.96
51261;BME280;61705;46.228;24.812;2022-12-18T06:05:43;98873.56;;;0.73;84.12
51261;BME280;61705;46.228;24.812;2022-12-18T06:08:12;98886.56;;;0.73;83.90
51261;BME280;61705;46.228;24.812;2022-12-18T06:10:40;98882.00;;;0.56;84.02
51261;BME280;61705;46.228;24.812;2022-12-18T06:13:07;98893.09;;;0.41;84.41
51261;BME280;61705;46.228;24.812;2022-12-18T06:15:36;98891.34;;;0.43;84.73
51261;BME280;61705;46.228;24.812;2022-12-18T06:18:05;98903.72;;;0.60;84.10
51261;BME280;61705;46.228;24.812;2022-12-18T06:20:32;98905.22;;;0.44;84.33
51261;BME280;61705;46.228;24.812;2022-12-18T06:22:59;98906.91;;;0.39;84.18
51261;BME280;61705;46.228;24.812;2022-12-18T06:25:26;98914.00;;;0.49;84.16
51261;BME280;61705;46.228;24.812;2022-12-18T06:27:53;98911.44;;;0.54;83.12
51261;BME280;61705;46.228;24.812;2022-12-18T06:30:20;98916.53;;;0.46;82.70
51261;BME280;61705;46.228;24.812;2022-12-18T06:32:48;98912.31;;;0.54;82.76
51261;BME280;61705;46.228;24.812;2022-12-18T06:35:22;98924.47;;;0.55;82.92
51261;BME280;61705;46.228;24.812;2022-12-18T06:37:48;98933.13;;;0.54;82.99
51261;BME280;61705;46.228;24.812;2022-12-18T06:40:15;98941.69;;;0.47;83.25
51261;BME280;61705;46.228;24.812;2022-12-18T06:42:42;98947.47;;;0.29;80.60
51261;BME280;61705;46.228;24.812;2022-12-18T06:45:09;98950.91;;;0.27;81.25
51261;BME280;61705;46.228;24.812;2022-12-18T06:47:36;98947.44;;;0.26;79.93
51261;BME280;61705;46.228;24.812;2022-12-18T06:50:03;98956.72;;;0.12;79.60
51261;BME280;61705;46.228;24.812;2022-12-18T06:52:31;98960.13;;;0.08;79.87
51261;BME280;61705;46.228;24.812;2022-12-18T06:54:58;98961.81;;;0.04;79.57
51261;BME280;61705;46.228;24.812;2022-12-18T06:57:25;98962.97;;;0.21;80.17
51261;BME280;61705;46.228;24.812;2022-12-18T06:59:51;98970.94;;;0.32;80.38
51261;BME280;61705;46.228;24.812;2022-12-18T07:02:18;98973.34;;;0.21;78.78
51261;BME280;61705;46.228;24.812;2022-12-18T07:04:45;98969.72;;;0.13;79.39
51261;BME280;61705;46.228;24.812;2022-12-18T07:07:12;98978.28;;;0.06;78.63
51261;BME280;61705;46.228;24.812;2022-12-18T07:09:38;98984.50;;;0.16;78.80
51261;BME280;61705;46.228;24.812;2022-12-18T07:12:05;98987.16;;;0.19;78.85
51261;BME280;61705;46.228;24.812;2022-12-18T07:14:33;98987.13;;;0.16;78.34
51261;BME280;61705;46.228;24.812;2022-12-18T07:17:01;98986.19;;;0.11;78.52
51261;BME280;61705;46.228;24.812;2022-12-18T07:19:29;98991.59;;;0.25;78.93
51261;BME280;61705;46.228;24.812;2022-12-18T07:21:56;98989.03;;;0.26;78.63
51261;BME280;61705;46.228;24.812;2022-12-18T07:24:23;98987.44;;;0.36;78.86
51261;BME280;61705;46.228;24.812;2022-12-18T07:26:50;98995.19;;;0.31;78.91
51261;BME280;61705;46.228;24.812;2022-12-18T07:29:16;98999.69;;;0.43;79.19
51261;BME280;61705;46.228;24.812;2022-12-18T07:31:43;98999.69;;;0.41;78.50
51261;BME280;61705;46.228;24.812;2022-12-18T07:34:12;99004.66;;;0.29;78.73
51261;BME280;61705;46.228;24.812;2022-12-18T07:36:42;99001.38;;;0.38;78.44
51261;BME280;61705;46.228;24.812;2022-12-18T07:39:11;99009.44;;;0.56;78.62
51261;BME280;61705;46.228;24.812;2022-12-18T07:41:37;99012.91;;;0.55;78.75
51261;BME280;61705;46.228;24.812;2022-12-18T07:44:12;99011.25;;;0.60;78.56
51261;BME280;61705;46.228;24.812;2022-12-18T07:46:40;99018.16;;;0.60;78.38
51261;BME280;61705;46.228;24.812;2022-12-18T07:49:06;99020.00;;;0.65;77.93
51261;BME280;61705;46.228;24.812;2022-12-18T07:51:33;99013.88;;;0.62;78.30
51261;BME280;61705;46.228;24.812;2022-12-18T07:54:00;99024.34;;;0.66;78.11
51261;BME280;61705;46.228;24.812;2022-12-18T07:56:26;99032.22;;;0.71;78.23
51261;BME280;61705;46.228;24.812;2022-12-18T07:58:56;99040.09;;;0.76;76.71
51261;BME280;61705;46.228;24.812;2022-12-18T08:01:23;99038.91;;;0.55;77.01
51261;BME280;61705;46.228;24.812;2022-12-18T08:03:53;99046.50;;;0.44;77.39
51261;BME280;61705;46.228;24.812;2022-12-18T08:06:20;99049.16;;;0.46;77.78
51261;BME280;61705;46.228;24.812;2022-12-18T08:08:53;99051.97;;;0.60;77.74
51261;BME280;61705;46.228;24.812;2022-12-18T08:11:22;99051.06;;;0.58;77.27
51261;BME280;61705;46.228;24.812;2022-12-18T08:13:49;99053.66;;;0.58;77.62
51261;BME280;61705;46.228;24.812;2022-12-18T08:16:19;99061.69;;;0.68;77.48
51261;BME280;61705;46.228;24.812;2022-12-18T08:18:46;99061.78;;;0.76;77.00
51261;BME280;61705;46.228;24.812;2022-12-18T08:21:20;99068.78;;;0.79;76.63
51261;BME280;61705;46.228;24.812;2022-12-18T08:23:49;99066.59;;;0.52;76.01
51261;BME280;61705;46.228;24.812;2022-12-18T08:26:17;99075.28;;;0.52;77.50
51261;BME280;61705;46.228;24.812;2022-12-18T08:28:44;99078.97;;;0.68;77.33
51261;BME280;61705;46.228;24.812;2022-12-18T08:31:11;99072.94;;;0.69;76.86
51261;BME280;61705;46.228;24.812;2022-12-18T08:33:38;99078.22;;;0.74;76.76
51261;BME280;61705;46.228;24.812;2022-12-18T08:36:08;99074.69;;;0.68;76.57
51261;BME280;61705;46.228;24.812;2022-12-18T08:38:35;99075.56;;;0.69;76.85
51261;BME280;61705;46.228;24.812;2022-12-18T08:41:05;99078.09;;;0.67;76.66
51261;BME280;61705;46.228;24.812;2022-12-18T08:43:32;99085.78;;;0.60;76.94
51261;BME280;61705;46.228;24.812;2022-12-18T08:46:18;99078.44;;;0.36;76.73
51261;BME280;61705;46.228;24.812;2022-12-18T08:48:45;99076.66;;;0.33;76.55
51261;BME280;61705;46.228;24.812;2022-12-18T08:51:12;99075.91;;;0.40;76.97
51261;BME280;61705;46.228;24.812;2022-12-18T08:53:39;99080.66;;;0.63;76.89
51261;BME280;61705;46.228;24.812;2022-12-18T08:56:07;99079.09;;;0.74;76.60
51261;BME280;61705;46.228;24.812;2022-12-18T08:58:33;99092.09;;;0.74;75.91
51261;BME280;61705;46.228;24.812;2022-12-18T09:01:01;99081.75;;;0.77;75.94
51261;BME280;61705;46.228;24.812;2022-12-18T09:03:28;99087.91;;;0.82;75.44
51261;BME280;61705;46.228;24.812;2022-12-18T09:05:55;99082.44;;;0.67;74.77
51261;BME280;61705;46.228;24.812;2022-12-18T09:08:22;99080.47;;;0.52;75.92
51261;BME280;61705;46.228;24.812;2022-12-18T09:10:49;99095.50;;;0.71;75.46
51261;BME280;61705;46.228;24.812;2022-12-18T09:13:17;99082.28;;;0.58;75.47
51261;BME280;61705;46.228;24.812;2022-12-18T09:15:47;99085.63;;;0.51;75.40
51261;BME280;61705;46.228;24.812;2022-12-18T09:18:15;99088.50;;;0.66;75.67
51261;BME280;61705;46.228;24.812;2022-12-18T09:20:43;99080.09;;;0.82;75.69
51261;BME280;61705;46.228;24.812;2022-12-18T09:23:10;99083.34;;;0.69;75.83
51261;BME280;61705;46.228;24.812;2022-12-18T09:25:38;99086.13;;;0.80;75.39
51261;BME280;61705;46.228;24.812;2022-12-18T09:28:09;99090.59;;;0.88;74.31
51261;BME280;61705;46.228;24.812;2022-12-18T09:30:38;99087.81;;;0.78;74.73
51261;BME280;61705;46.228;24.812;2022-12-18T09:33:05;99094.63;;;0.69;75.27
51261;BME280;61705;46.228;24.812;2022-12-18T09:35:38;99087.72;;;0.71;75.59
51261;BME280;61705;46.228;24.812;2022-12-18T09:38:06;99088.03;;;0.91;73.91
51261;BME280;61705;46.228;24.812;2022-12-18T09:40:36;99092.34;;;0.89;73.36
51261;BME280;61705;46.228;24.812;2022-12-18T09:43:06;99092.09;;;0.74;73.15
51261;BME280;61705;46.228;24.812;2022-12-18T09:45:47;99095.69;;;0.81;73.10
51261;BME280;61705;46.228;24.812;2022-12-18T09:48:22;99094.56;;;0.66;73.18
51261;BME280;61705;46.228;24.812;2022-12-18T09:50:50;99097.25;;;0.71;73.53
51261;BME280;61705;46.228;24.812;2022-12-18T09:53:26;99093.84;;;0.75;73.17
51261;BME280;61705;46.228;24.812;2022-12-18T09:55:54;99087.81;;;0.78;72.86
51261;BME280;61705;46.228;24.812;2022-12-18T09:58:36;99082.38;;;0.62;72.54
51261;BME280;61705;46.228;24.812;2022-12-18T10:01:22;99087.53;;;0.59;73.42
51261;BME280;61705;46.228;24.812;2022-12-18T10:03:50;99088.63;;;0.74;73.76
51261;BME280;61705;46.228;24.812;2022-12-18T10:09:01;99092.66;;;0.56;73.34
51261;BME280;61705;46.228;24.812;2022-12-18T10:12:06;99095.16;;;0.50;73.84
51261;BME280;61705;46.228;24.812;2022-12-18T10:15:10;99097.19;;;0.68;73.51
51261;BME280;61705;46.228;24.812;2022-12-18T10:18:12;99094.34;;;0.54;74.05
51261;BME280;61705;46.228;24.812;2022-12-18T10:20:39;99104.28;;;0.78;73.79
51261;BME280;61705;46.228;24.812;2022-12-18T10:23:33;99098.25;;;0.79;73.90
51261;BME280;61705;46.228;24.812;2022-12-18T10:26:10;99104.34;;;0.80;73.90
51261;BME280;61705;46.228;24.812;2022-12-18T10:28:40;99102.44;;;0.71;74.09
51261;BME280;61705;46.228;24.812;2022-12-18T10:31:15;99099.41;;;0.97;74.00
51261;BME280;61705;46.228;24.812;2022-12-18T10:33:43;99097.63;;;0.94;73.35
51261;BME280;61705;46.228;24.812;2022-12-18T10:36:10;99106.34;;;0.98;73.80
51261;BME280;61705;46.228;24.812;2022-12-18T10:38:38;99098.66;;;1.05;73.59
51261;BME280;61705;46.228;24.812;2022-12-18T10:41:08;99105.38;;;0.89;73.44
51261;BME280;61705;46.228;24.812;2022-12-18T10:44:14;99093.50;;;1.08;73.04
51261;BME280;61705;46.228;24.812;2022-12-18T10:46:46;99092.69;;;1.11;72.92
51261;BME280;61705;46.228;24.812;2022-12-18T10:49:26;99094.41;;;1.12;72.93
51261;BME280;61705;46.228;24.812;2022-12-18T10:52:14;99089.25;;;1.15;72.96
51261;BME280;61705;46.228;24.812;2022-12-18T10:55:03;99097.84;;;1.09;72.65
51261;BME280;61705;46.228;24.812;2022-12-18T10:57:40;99098.66;;;1.05;72.53
51261;BME280;61705;46.228;24.812;2022-12-18T11:00:28;99096.88;;;1.01;72.65
51261;BME280;61705;46.228;24.812;2022-12-18T11:02:56;99102.88;;;0.97;72.61
51261;BME280;61705;46.228;24.812;2022-12-18T11:05:31;99103.75;;;0.98;72.77
51261;BME280;61705;46.228;24.812;2022-12-18T11:07:58;99103.66;;;0.91;72.60
51261;BME280;61705;46.228;24.812;2022-12-18T11:10:32;99105.44;;;0.95;72.81
51261;BME280;61705;46.228;24.812;2022-12-18T11:13:23;99118.66;;;1.06;73.27
51261;BME280;61705;46.228;24.812;2022-12-18T11:15:51;99111.97;;;0.69;73.87
51261;BME280;61705;46.228;24.812;2022-12-18T11:18:33;99120.47;;;0.59;73.88
51261;BME280;61705;46.228;24.812;2022-12-18T11:21:15;99121.84;;;0.38;74.21
51261;BME280;61705;46.228;24.812;2022-12-18T11:23:49;99117.06;;;0.64;74.37
51261;BME280;61705;46.228;24.812;2022-12-18T11:26:19;99116.31;;;0.68;73.89
51261;BME280;61705;46.228;24.812;2022-12-18T11:28:51;99111.13;;;0.71;74.14
51261;BME280;61705;46.228;24.812;2022-12-18T11:31:24;99124.28;;;0.81;74.24
51261;BME280;61705;46.228;24.812;2022-12-18T11:36:46;99131.75;;;0.61;74.89
51261;BME280;61705;46.228;24.812;2022-12-18T11:39:41;99133.47;;;0.60;74.42
51261;BME280;61705;46.228;24.812;2022-12-18T11:42:17;99136.56;;;0.88;74.27
51261;BME280;61705;46.228;24.812;2022-12-18T11:45:03;99130.53;;;0.92;73.61
51261;BME280;61705;46.228;24.812;2022-12-18T11:47:44;99143.59;;;0.93;73.11
51261;BME280;61705;46.228;24.812;2022-12-18T11:53:03;99142.72;;;0.93;72.50
51261;BME280;61705;46.228;24.812;2022-12-18T11:55:48;99137.47;;;0.91;72.68
51261;BME280;61705;46.228;24.812;2022-12-18T12:10:09;99140.88;;;0.86;72.48
51261;BME280;61705;46.228;24.812;2022-12-18T12:15:06;99145.31;;;0.93;72.52
51261;BME280;61705;46.228;24.812;2022-12-18T12:17:47;99140.88;;;0.87;72.22
51261;BME280;61705;46.228;24.812;2022-12-18T12:26:01;99150.41;;;0.87;71.96
51261;BME280;61705;46.228;24.812;2022-12-18T12:39:49;99155.75;;;0.94;71.01
51261;BME280;61705;46.228;24.812;2022-12-18T12:42:42;99151.41;;;0.93;70.86
51261;BME280;61705;46.228;24.812;2022-12-18T12:45:45;99165.97;;;0.84;71.10
51261;BME280;61705;46.228;24.812;2022-12-18T12:48:19;99174.53;;;0.78;71.29
51261;BME280;61705;46.228;24.812;2022-12-18T12:50:49;99172.72;;;0.73;72.01
51261;BME280;61705;46.228;24.812;2022-12-18T12:53:26;99174.66;;;0.83;72.12
51261;BME280;61705;46.228;24.812;2022-12-18T12:55:57;99172.75;;;0.74;71.11
51261;BME280;61705;46.228;24.812;2022-12-18T13:03:56;99181.59;;;0.82;71.38
51261;BME280;61705;46.228;24.812;2022-12-18T13:08:58;99182.28;;;0.74;71.30
51261;BME280;61705;46.228;24.812;2022-12-18T13:11:46;99188.34;;;0.73;71.57
51261;BME280;61705;46.228;24.812;2022-12-18T13:14:37;99196.09;;;0.71;71.98
51261;BME280;61705;46.228;24.812;2022-12-18T13:17:14;99202.09;;;0.65;72.17
51261;BME280;61705;46.228;24.812;2022-12-18T13:19:42;99192.69;;;0.72;72.32
51261;BME280;61705;46.228;24.812;2022-12-18T13:22:25;99190.00;;;0.69;72.55
51261;BME280;61705;46.228;24.812;2022-12-18T13:24:55;99202.34;;;0.81;72.22
51261;BME280;61705;46.228;24.812;2022-12-18T13:38:36;99210.81;;;0.69;72.30
51261;BME280;61705;46.228;24.812;2022-12-18T13:43:50;99211.91;;;0.36;71.98
51261;BME280;61705;46.228;24.812;2022-12-18T13:51:59;99212.13;;;0.47;72.85
51261;BME280;61705;46.228;24.812;2022-12-18T13:54:36;99213.16;;;0.55;72.62
51261;BME280;61705;46.228;24.812;2022-12-18T13:57:32;99220.84;;;0.49;72.42
51261;BME280;61705;46.228;24.812;2022-12-18T14:02:44;99223.19;;;0.37;72.46
51261;BME280;61705;46.228;24.812;2022-12-18T14:05:43;99234.25;;;0.27;72.61
51261;BME280;61705;46.228;24.812;2022-12-18T14:08:16;99237.56;;;0.18;72.54
51261;BME280;61705;46.228;24.812;2022-12-18T14:10:45;99232.53;;;0.27;72.67
51261;BME280;61705;46.228;24.812;2022-12-18T14:15:48;99248.16;;;0.29;72.21
51261;BME280;61705;46.228;24.812;2022-12-18T14:18:23;99245.59;;;0.30;72.21
51261;BME280;61705;46.228;24.812;2022-12-18T14:20:50;99247.28;;;0.28;72.54
51261;BME280;61705;46.228;24.812;2022-12-18T14:25:57;99251.72;;;0.34;72.56
51261;BME280;61705;46.228;24.812;2022-12-18T14:28:31;99262.25;;;0.38;72.83
51261;BME280;61705;46.228;24.812;2022-12-18T14:30:58;99254.44;;;0.40;72.47
51261;BME280;61705;46.228;24.812;2022-12-18T14:33:27;99259.59;;;0.37;72.71
51261;BME280;61705;46.228;24.812;2022-12-18T14:35:57;99257.75;;;0.31;72.81
51261;BME280;61705;46.228;24.812;2022-12-18T14:38:35;99257.03;;;0.38;73.10
51261;BME280;61705;46.228;24.812;2022-12-18T14:43:37;99269.63;;;0.18;73.48
51261;BME280;61705;46.228;24.812;2022-12-18T14:46:06;99275.69;;;0.20;74.04
51261;BME280;61705;46.228;24.812;2022-12-18T14:48:53;99287.66;;;0.11;74.02
51261;BME280;61705;46.228;24.812;2022-12-18T14:51:22;99278.31;;;0.20;74.21
51261;BME280;61705;46.228;24.812;2022-12-18T14:56:32;99280.91;;;0.20;73.96
51261;BME280;61705;46.228;24.812;2022-12-18T14:59:29;99281.88;;;0.24;74.25
51261;BME280;61705;46.228;24.812;2022-12-18T15:02:21;99282.81;;;0.28;74.18
51261;BME280;61705;46.228;24.812;2022-12-18T15:05:24;99285.28;;;0.21;73.95
51261;BME280;61705;46.228;24.812;2022-12-18T15:07:53;99291.06;;;0.10;74.28
51261;BME280;61705;46.228;24.812;2022-12-18T15:10:23;99286.81;;;0.13;74.56
51261;BME280;61705;46.228;24.812;2022-12-18T15:20:59;99313.41;;;0.00;75.53